Time;durP1;ratioP1;P1;durP2;ratioP2;P2;SDS_P1;SDS_P2;PMS_P1;PMS_P2;Temp;Humidity;BMP_temperature;BMP_pressure;BME280_temperature;BME280_humidity;BME280_pressure;Samples;Min_cycle;Max_cycle;Signal;HPM_P1;HPM_P2
2023/05/09 00:02:49;;;;;;;8.68;6.43;;;;;;;15.11;53.12;100702.66;10213901;29;20134;-74
2023/05/09 00:07:51;;;;;;;6.53;5.90;;;;;;;15.08;53.10;100706.50;10274801;28;20053;-74
2023/05/09 00:12:57;;;;;;;6.95;6.00;;;;;;;15.02;53.45;100704.41;10297198;28;20117;-74
2023/05/09 00:18:00;;;;;;;7.07;5.70;;;;;;;14.92;53.11;100709.84;10296183;28;20046;-75
2023/05/09 00:23:03;;;;;;;6.05;5.47;;;;;;;14.87;53.43;100706.72;10299725;28;20414;-74
2023/05/09 00:28:07;;;;;;;5.97;5.38;;;;;;;14.82;53.24;100704.44;10297786;28;20378;-74
2023/05/09 00:33:10;;;;;;;7.35;6.40;;;;;;;14.70;53.63;100692.09;10298087;28;20046;-74
2023/05/09 00:38:13;;;;;;;7.10;6.35;;;;;;;14.69;53.74;100690.34;10297314;28;20042;-74
2023/05/09 00:43:18;;;;;;;7.03;6.35;;;;;;;14.71;53.42;100677.56;10289017;28;20104;-74
2023/05/09 00:48:21;;;;;;;9.50;5.18;;;;;;;14.79;53.08;100671.44;10299801;28;20053;-75
2023/05/09 00:53:24;;;;;;;6.57;5.78;;;;;;;14.68;52.78;100660.78;10297969;28;20125;-75
2023/05/09 00:58:29;;;;;;;6.63;5.07;;;;;;;14.70;52.28;100648.81;10310461;28;20047;-75
2023/05/09 01:03:33;;;;;;;6.63;5.10;;;;;;;14.62;52.07;100651.41;10297905;28;20093;-75
2023/05/09 01:08:46;;;;;;;7.57;4.70;;;;;;;14.60;51.93;100642.56;10298939;28;20045;-74
2023/05/09 01:14:00;;;;;;;5.57;4.38;;;;;;;14.60;51.56;100634.47;10306308;28;20042;-74
2023/05/09 01:19:16;;;;;;;5.55;5.00;;;;;;;14.51;52.13;100627.22;10304537;28;20077;-76
2023/05/09 01:24:49;;;;;;;5.82;5.07;;;;;;;14.26;52.28;100629.47;10303471;28;20043;-76
2023/05/09 01:29:57;;;;;;;5.38;4.78;;;;;;;14.11;52.52;100609.28;10317797;28;20051;-73
2023/05/09 01:35:03;;;;;;;13.85;6.53;;;;;;;14.04;52.61;100608.13;10316334;28;20133;-74
2023/05/09 01:40:10;;;;;;;5.78;5.07;;;;;;;14.01;52.59;100597.59;10302607;28;20054;-76
2023/05/09 01:45:16;;;;;;;7.32;4.88;;;;;;;14.02;53.09;100597.47;10297167;28;20050;-76
2023/05/09 01:50:21;;;;;;;5.13;4.63;;;;;;;13.97;53.21;100604.31;10301895;28;20086;-76
2023/05/09 01:55:27;;;;;;;4.88;4.43;;;;;;;13.91;53.59;100601.16;10305193;28;20038;-76
2023/05/09 02:00:31;;;;;;;8.57;5.07;;;;;;;13.75;53.88;100595.47;10312866;28;20093;-75
2023/05/09 02:05:37;;;;;;;7.00;4.88;;;;;;;13.73;54.21;100604.69;10303293;28;20370;-75
2023/05/09 02:10:40;;;;;;;7.20;4.85;;;;;;;13.68;54.32;100588.91;10301340;28;20078;-76
2023/05/09 02:15:45;;;;;;;5.47;4.97;;;;;;;13.64;54.77;100592.88;10301001;28;20047;-75
2023/05/09 02:20:48;;;;;;;5.30;4.90;;;;;;;13.42;54.79;100592.13;10299889;28;20093;-75
2023/05/09 02:25:53;;;;;;;6.35;5.07;;;;;;;13.39;54.94;100581.63;10301066;28;20046;-76
2023/05/09 02:31:02;;;;;;;5.45;4.93;;;;;;;13.27;54.59;100574.56;10296861;28;20046;-75
2023/05/09 02:36:07;;;;;;;7.78;4.97;;;;;;;13.24;55.01;100570.31;10303315;28;20096;-75
2023/05/09 02:41:12;;;;;;;6.95;5.53;;;;;;;13.22;55.39;100564.22;10301521;28;20497;-75
2023/05/09 02:46:17;;;;;;;8.02;5.03;;;;;;;13.13;55.55;100556.06;10318977;28;20074;-76
2023/05/09 02:51:19;;;;;;;7.30;5.50;;;;;;;12.96;55.56;100554.88;10316639;28;20478;-76
2023/05/09 02:56:22;;;;;;;5.80;4.95;;;;;;;12.95;55.65;100554.03;10300536;28;20043;-75
2023/05/09 03:01:26;;;;;;;5.85;4.82;;;;;;;13.03;55.57;100550.66;10298860;28;20074;-76
2023/05/09 03:06:29;;;;;;;5.57;4.95;;;;;;;12.90;55.67;100560.81;10298106;28;20430;-76
2023/05/09 03:11:32;;;;;;;8.27;5.18;;;;;;;12.87;55.54;100561.94;10298044;28;20055;-75
2023/05/09 03:16:37;;;;;;;8.63;5.15;;;;;;;12.74;55.72;100553.22;10298256;28;20039;-75
2023/05/09 03:21:44;;;;;;;5.25;4.38;;;;;;;12.67;55.74;100557.44;10299726;28;20109;-75
2023/05/09 03:26:48;;;;;;;5.40;4.70;;;;;;;12.68;55.93;100551.06;10299019;28;20039;-75
2023/05/09 03:31:52;;;;;;;5.20;4.70;;;;;;;12.58;55.55;100559.09;10295891;28;20383;-74
2023/05/09 03:36:55;;;;;;;5.10;4.35;;;;;;;12.56;55.55;100552.97;10299124;28;20433;-75
2023/05/09 03:41:58;;;;;;;5.93;4.30;;;;;;;12.43;55.41;100542.44;10299059;28;20066;-75
2023/05/09 03:47:03;;;;;;;4.22;3.83;;;;;;;12.46;55.43;100541.31;10296849;28;20494;-76
2023/05/09 03:52:12;;;;;;;7.93;4.72;;;;;;;12.42;55.11;100527.22;10296503;28;20047;-76
2023/05/09 03:57:15;;;;;;;7.50;3.72;;;;;;;12.61;54.63;100529.19;10295607;28;20413;-75
2023/05/09 04:02:21;;;;;;;5.15;3.58;;;;;;;12.70;54.45;100532.91;10295888;28;20049;-75
2023/05/09 04:07:25;;;;;;;5.45;4.00;;;;;;;12.77;54.11;100531.38;10344495;23;20049;-76
2023/05/09 04:12:28;;;;;;;3.88;3.50;;;;;;;12.91;53.87;100535.56;10321276;28;20074;-74
2023/05/09 04:17:33;;;;;;;8.73;4.20;;;;;;;12.87;53.93;100536.84;10319231;28;20046;-74
2023/05/09 04:22:36;;;;;;;3.70;3.30;;;;;;;12.80;53.80;100517.63;10317860;28;20556;-74
2023/05/09 04:27:39;;;;;;;4.75;3.92;;;;;;;12.89;53.84;100522.22;10318090;28;20046;-77
2023/05/09 04:32:44;;;;;;;4.93;3.97;;;;;;;13.04;53.71;100517.31;10331815;28;20077;-74
2023/05/09 04:37:48;;;;;;;4.60;3.63;;;;;;;13.27;53.19;100516.09;10318995;28;20561;-75
2023/05/09 04:42:52;;;;;;;4.53;3.97;;;;;;;13.33;53.13;100519.22;10318101;28;20089;-74
2023/05/09 04:48:01;;;;;;;5.45;3.28;;;;;;;13.51;53.18;100505.94;10328033;28;20039;-74
2023/05/09 04:53:04;;;;;;;4.72;3.72;;;;;;;13.54;53.28;100495.69;10337121;28;20063;-73
2023/05/09 04:58:09;;;;;;;4.00;3.60;;;;;;;13.51;53.22;100505.94;10334699;28;20042;-76
2023/05/09 05:03:13;;;;;;;4.57;3.97;;;;;;;13.62;53.82;100508.50;10331488;28;20046;-74
2023/05/09 05:08:16;;;;;;;5.63;3.80;;;;;;;13.69;53.69;100498.84;10314485;28;20046;-74
2023/05/09 05:13:20;;;;;;;5.65;5.05;;;;;;;13.74;53.83;100498.41;10318266;28;20413;-75
2023/05/09 05:18:28;;;;;;;8.98;4.53;;;;;;;13.82;54.47;100494.03;10308362;28;20208;-75
2023/05/09 05:23:31;;;;;;;7.28;4.97;;;;;;;14.00;54.29;100488.72;10319382;28;20042;-74
2023/05/09 05:28:34;;;;;;;7.57;4.93;;;;;;;14.25;54.16;100489.97;10316519;28;20047;-75
2023/05/09 05:33:39;;;;;;;6.30;5.07;;;;;;;14.25;54.02;100489.97;10318072;28;20074;-75
2023/05/09 05:38:42;;;;;;;5.78;5.18;;;;;;;14.09;54.30;100484.31;10309681;28;20173;-75
2023/05/09 05:43:45;;;;;;;5.43;4.93;;;;;;;14.24;54.43;100488.28;10281326;28;20044;-74
2023/05/09 05:48:51;;;;;;;9.00;5.32;;;;;;;14.01;55.61;100486.88;10288183;28;20064;-74
2023/05/09 05:53:54;;;;;;;7.20;6.30;;;;;;;13.93;55.79;100472.28;10286409;28;20038;-76
2023/05/09 05:58:58;;;;;;;7.00;5.43;;;;;;;14.08;56.28;100471.81;10286653;28;20053;-76
2023/05/09 06:04:02;;;;;;;8.30;6.40;;;;;;;14.41;56.58;100454.25;10303960;28;20524;-75
2023/05/09 06:09:07;;;;;;;5.78;5.13;;;;;;;14.88;56.55;100442.53;10281043;28;20054;-75
2023/05/09 06:14:10;;;;;;;7.38;5.60;;;;;;;15.07;55.61;100437.00;10290387;28;20125;-75
2023/05/09 06:19:14;;;;;;;6.13;4.95;;;;;;;15.26;55.05;100444.13;10287715;28;20055;-74
2023/05/09 06:24:17;;;;;;;10.38;5.93;;;;;;;15.32;55.08;100434.53;10296490;28;20057;-75
2023/05/09 06:29:37;;;;;;;6.68;5.65;;;;;;;15.67;54.83;100431.00;10277849;28;20077;-76
2023/05/09 06:34:41;;;;;;;8.93;5.93;;;;;;;16.09;54.91;100427.59;10290003;28;20054;-75
2023/05/09 06:39:44;;;;;;;6.80;6.07;;;;;;;16.60;53.85;100415.03;10286998;28;20045;-75
2023/05/09 06:44:47;;;;;;;9.25;8.05;;;;;;;16.52;53.03;100421.25;10285718;28;20528;-75
2023/05/09 06:49:51;;;;;;;8.52;7.18;;;;;;;16.62;52.68;100415.72;10282484;28;20054;-75
2023/05/09 06:54:53;;;;;;;9.35;7.05;;;;;;;16.83;52.31;100414.44;10294868;28;20050;-75
2023/05/09 06:59:56;;;;;;;12.27;7.53;;;;;;;16.68;53.50;100395.25;10294642;28;20050;-76
2023/05/09 07:05:00;;;;;;;9.43;8.10;;;;;;;16.87;53.12;100389.53;10291149;28;20421;-75
2023/05/09 07:10:04;;;;;;;10.20;7.50;;;;;;;17.11;52.54;100385.16;10282933;28;20141;-75
2023/05/09 07:15:13;;;;;;;9.35;7.50;;;;;;;17.41;51.82;100375.56;10284980;28;20844;-75
2023/05/09 07:20:32;;;;;;;9.57;8.20;;;;;;;17.63;51.92;100369.44;10274803;28;20051;-76
2023/05/09 07:25:35;;;;;;;11.60;8.25;;;;;;;17.77;51.54;100354.34;10273389;28;20078;-76
2023/05/09 07:30:38;;;;;;;9.55;8.63;;;;;;;18.18;51.14;100348.81;10281353;28;21166;-75
2023/05/09 07:35:42;;;;;;;9.75;8.75;;;;;;;18.40;51.06;100347.19;10281843;28;20567;-76
2023/05/09 07:40:45;;;;;;;10.10;9.05;;;;;;;18.88;51.01;100331.69;10285627;28;20043;-76
2023/05/09 07:45:47;;;;;;;9.85;8.68;;;;;;;18.76;50.57;100327.66;10295532;28;21482;-75
2023/05/09 07:50:52;;;;;;;9.95;8.93;;;;;;;18.97;50.50;100321.59;10285480;28;20054;-74
2023/05/09 07:55:54;;;;;;;10.68;8.70;;;;;;;19.28;50.75;100313.38;10282915;28;20054;-75
2023/05/09 08:00:57;;;;;;;11.82;8.77;;;;;;;19.68;50.27;100305.88;10289168;28;20100;-75
2023/05/09 08:06:02;;;;;;;9.73;8.38;;;;;;;19.81;49.79;100303.34;10283465;28;20409;-77
2023/05/09 08:11:05;;;;;;;9.57;8.60;;;;;;;20.37;49.37;100297.41;10288293;28;20045;-76
2023/05/09 08:16:08;;;;;;;11.43;8.93;;;;;;;21.25;46.45;100289.13;10281945;28;20034;-76
2023/05/09 08:21:12;;;;;;;11.73;9.40;;;;;;;21.83;45.60;100278.88;10285577;28;20545;-76
2023/05/09 08:26:15;;;;;;;9.60;8.57;;;;;;;21.67;46.33;100280.03;10260369;28;20058;-76
2023/05/09 08:31:18;;;;;;;16.13;12.93;;;;;;;20.65;49.75;100281.19;10281048;28;20057;-76
2023/05/09 08:36:22;;;;;;;14.43;12.80;;;;;;;19.54;52.38;100274.81;10276354;28;20822;-76
2023/05/09 08:41:26;;;;;;;13.65;11.98;;;;;;;19.71;52.90;100261.88;10284624;28;20049;-75
2023/05/09 08:46:36;;;;;;;15.50;12.52;;;;;;;19.86;52.75;100262.75;10275731;28;20054;-76
2023/05/09 08:51:40;;;;;;;18.05;13.23;;;;;;;19.96;51.91;100259.72;10277178;28;20070;-75
2023/05/09 08:56:43;;;;;;;14.43;12.93;;;;;;;20.38;52.18;100249.16;10275823;28;20050;-77
2023/05/09 09:01:47;;;;;;;14.70;12.95;;;;;;;20.92;49.77;100240.50;10269501;28;20619;-78
2023/05/09 09:06:53;;;;;;;26.20;15.27;;;;;;;20.58;50.12;100243.94;10268972;28;20433;-77
2023/05/09 09:11:57;;;;;;;14.25;12.75;;;;;;;20.30;51.55;100231.84;10262586;28;20199;-75
2023/05/09 09:17:01;;;;;;;15.10;13.15;;;;;;;19.89;52.56;100250.63;10269744;28;20046;-75
2023/05/09 09:22:06;;;;;;;15.82;13.13;;;;;;;19.48;53.92;100231.13;10285292;28;20532;-74
2023/05/09 09:27:09;;;;;;;17.38;12.13;;;;;;;19.15;53.90;100224.13;10279910;28;20065;-74
2023/05/09 09:32:12;;;;;;;13.98;10.70;;;;;;;19.01;54.19;100222.22;10298038;28;20076;-74
2023/05/09 09:37:23;;;;;;;15.02;12.20;;;;;;;18.86;54.40;100208.56;10295841;28;20038;-75
2023/05/09 09:42:26;;;;;;;21.50;12.93;;;;;;;19.30;54.16;100202.34;10294096;28;20044;-74
2023/05/09 09:47:32;;;;;;;14.07;12.18;;;;;;;19.65;52.81;100203.53;10294726;28;20229;-74
2023/05/09 09:52:36;;;;;;;13.60;11.50;;;;;;;19.63;53.14;100194.69;10298185;28;20528;-75
2023/05/09 09:57:42;;;;;;;12.15;10.95;;;;;;;19.56;53.20;100196.50;10296131;28;20149;-75
2023/05/09 10:02:50;;;;;;;12.98;11.48;;;;;;;19.40;53.20;100181.16;10295774;28;20104;-75
2023/05/09 10:07:58;;;;;;;11.45;10.18;;;;;;;19.90;51.37;100176.00;10291951;28;20276;-75
2023/05/09 10:13:02;;;;;;;13.15;11.13;;;;;;;20.46;49.73;100161.75;10295402;28;21241;-74
2023/05/09 10:18:07;;;;;;;13.70;11.60;;;;;;;20.90;48.79;100163.41;10292314;28;20046;-75
2023/05/09 10:23:16;;;;;;;11.73;10.50;;;;;;;21.32;48.37;100157.03;10293393;28;20127;-75
2023/05/09 10:28:24;;;;;;;17.05;11.02;;;;;;;21.54;48.25;100135.09;10289116;28;20128;-75
2023/05/09 10:33:31;;;;;;;13.20;10.43;;;;;;;22.61;47.44;100128.94;10292676;28;20049;-75
2023/05/09 10:38:36;;;;;;;12.45;10.07;;;;;;;22.53;46.33;100110.81;10290414;28;20160;-75
2023/05/09 10:43:39;;;;;;;12.23;10.95;;;;;;;21.70;47.46;100112.88;10295825;28;20096;-76
2023/05/09 10:48:43;;;;;;;12.80;9.73;;;;;;;21.82;47.69;100113.16;10291224;28;20085;-75
2023/05/09 10:53:48;;;;;;;12.48;9.68;;;;;;;22.03;46.61;100109.47;10290174;28;20054;-76
2023/05/09 10:58:52;;;;;;;11.40;9.48;;;;;;;22.62;46.27;100097.75;10286666;28;20513;-76
2023/05/09 11:03:56;;;;;;;11.05;9.93;;;;;;;22.02;46.18;100091.34;10288738;28;20050;-76
2023/05/09 11:09:28;;;;;;;13.35;8.93;;;;;;;21.78;46.31;100077.22;10287616;28;20394;-76
2023/05/09 11:14:32;;;;;;;11.40;10.20;;;;;;;22.34;45.80;100071.41;10290031;28;20058;-75
2023/05/09 11:19:54;;;;;;;14.45;9.95;;;;;;;22.55;45.46;100069.56;10288557;28;20505;-75
2023/05/09 11:25:04;;;;;;;9.90;8.98;;;;;;;22.52;46.06;100056.31;10290175;28;20046;-75
2023/05/09 11:30:08;;;;;;;10.38;9.38;;;;;;;22.82;45.13;100053.97;10287433;28;20069;-75
2023/05/09 11:35:13;;;;;;;11.15;10.05;;;;;;;22.48;46.08;100041.34;10283562;28;20149;-76
2023/05/09 11:40:20;;;;;;;11.80;9.55;;;;;;;22.83;46.20;100025.53;10284636;28;20050;-75
2023/05/09 11:45:25;;;;;;;12.00;9.80;;;;;;;22.90;44.43;100025.50;10287827;28;20173;-75
2023/05/09 11:50:29;;;;;;;10.13;9.10;;;;;;;22.81;45.61;100024.06;10289314;28;20518;-76
2023/05/09 11:55:37;;;;;;;11.30;9.10;;;;;;;22.47;45.68;100012.31;10289764;28;20050;-75
2023/05/09 12:00:44;;;;;;;10.25;8.70;;;;;;;22.75;45.64;100004.69;10289457;28;20046;-75
2023/05/09 12:05:48;;;;;;;9.20;8.32;;;;;;;22.91;44.99;100000.66;10277624;28;20545;-76
2023/05/09 12:10:52;;;;;;;9.07;8.13;;;;;;;24.00;43.60;99992.59;10281298;28;20110;-75
2023/05/09 12:16:00;;;;;;;8.75;7.85;;;;;;;23.02;44.49;99971.75;10288271;28;20058;-76
2023/05/09 12:21:05;;;;;;;7.88;5.80;;;;;;;22.40;44.34;99970.38;10279017;28;20536;-76
2023/05/09 12:26:10;;;;;;;6.70;5.40;;;;;;;22.67;45.10;99963.84;10282767;28;20050;-76
2023/05/09 12:31:13;;;;;;;7.57;6.07;;;;;;;23.61;43.50;99961.59;10278894;28;20057;-73
2023/05/09 12:36:16;;;;;;;6.45;5.85;;;;;;;24.49;42.05;99947.88;10284316;28;20046;-75
2023/05/09 12:41:23;;;;;;;5.32;4.82;;;;;;;23.15;42.77;99958.03;10284437;28;20128;-75
2023/05/09 12:46:31;;;;;;;7.22;6.50;;;;;;;23.99;42.34;99941.53;10285542;28;20085;-75
2023/05/09 12:51:36;;;;;;;7.32;5.68;;;;;;;23.48;43.36;99920.53;10294567;28;21197;-75
2023/05/09 12:56:40;;;;;;;7.55;6.07;;;;;;;22.96;44.85;99926.06;10287330;28;20524;-75
2023/05/09 13:01:43;;;;;;;7.53;6.80;;;;;;;22.32;45.56;99924.94;10285740;28;20073;-75
2023/05/09 13:06:50;;;;;;;7.10;6.47;;;;;;;23.41;43.71;99913.22;10283727;28;20531;-75
2023/05/09 13:11:55;;;;;;;7.35;6.65;;;;;;;24.53;41.92;99901.56;10282745;28;20050;-75
2023/05/09 13:16:57;;;;;;;7.40;6.68;;;;;;;24.66;40.90;99890.44;10283281;28;20409;-75
2023/05/09 13:22:00;;;;;;;9.15;7.05;;;;;;;23.95;42.11;99896.41;10281617;28;20046;-76
2023/05/09 13:27:05;;;;;;;7.47;6.78;;;;;;;22.82;44.39;99884.22;10283788;28;20566;-75
2023/05/09 13:32:07;;;;;;;7.38;6.60;;;;;;;22.46;44.94;99874.66;10278419;28;20046;-76
2023/05/09 13:37:10;;;;;;;9.35;6.90;;;;;;;22.34;45.53;99876.31;10284231;28;20053;-76
2023/05/09 13:42:14;;;;;;;7.85;7.05;;;;;;;23.17;43.04;99859.19;10283309;28;20057;-76
2023/05/09 13:47:20;;;;;;;7.15;6.45;;;;;;;23.10;43.10;99851.00;10282446;28;20065;-76
2023/05/09 13:52:23;;;;;;;5.93;5.38;;;;;;;23.56;42.14;99843.53;10284901;28;20129;-75
2023/05/09 13:57:28;;;;;;;7.65;6.95;;;;;;;23.71;42.56;99841.31;10281071;28;20536;-76
2023/05/09 14:02:30;;;;;;;7.15;6.45;;;;;;;24.07;41.47;99826.84;10278777;28;20054;-75
2023/05/09 14:07:33;;;;;;;6.85;6.03;;;;;;;23.96;42.35;99819.38;10281688;28;20142;-75
2023/05/09 14:12:39;;;;;;;5.75;5.25;;;;;;;24.70;40.79;99816.69;10282450;28;20719;-76
2023/05/09 14:17:42;;;;;;;6.80;5.22;;;;;;;23.88;41.25;99805.97;10285774;28;21283;-75
2023/05/09 14:22:45;;;;;;;7.18;5.70;;;;;;;24.71;40.83;99799.13;10285876;28;20053;-76
2023/05/09 14:27:50;;;;;;;6.35;5.80;;;;;;;24.36;40.57;99790.69;10286161;28;20045;-76
2023/05/09 14:32:53;;;;;;;6.93;6.13;;;;;;;23.66;42.19;99784.41;10287537;28;20264;-75
2023/05/09 14:37:55;;;;;;;6.32;5.72;;;;;;;23.11;43.42;99783.38;10287049;28;20050;-75
2023/05/09 14:43:01;;;;;;;7.07;6.47;;;;;;;22.99;43.48;99781.31;10287441;28;20050;-75
2023/05/09 14:48:04;;;;;;;7.18;6.47;;;;;;;23.09;43.56;99780.00;10288520;28;20049;-75
2023/05/09 14:53:07;;;;;;;8.55;5.80;;;;;;;23.19;43.54;99770.25;10290245;28;20141;-75
2023/05/09 14:58:12;;;;;;;6.32;5.30;;;;;;;22.84;43.26;99767.09;10291620;28;20169;-76
2023/05/09 15:03:16;;;;;;;6.45;5.85;;;;;;;22.90;43.21;99760.75;10290700;28;20054;-75
2023/05/09 15:08:18;;;;;;;8.55;7.03;;;;;;;24.43;40.91;99756.59;10286443;28;20497;-75
2023/05/09 15:13:23;;;;;;;8.30;7.47;;;;;;;23.27;41.67;99760.09;10286129;28;20177;-75
2023/05/09 15:18:27;;;;;;;7.95;7.18;;;;;;;22.64;43.03;99755.44;10288697;28;20185;-75
2023/05/09 15:23:30;;;;;;;10.77;7.50;;;;;;;22.32;44.14;99749.84;10292257;28;20505;-75
2023/05/09 15:28:34;;;;;;;9.00;8.10;;;;;;;22.16;44.84;99744.84;10291736;28;21775;-75
2023/05/09 15:33:37;;;;;;;9.75;7.32;;;;;;;22.16;45.41;99743.00;10290285;28;20117;-75
2023/05/09 15:38:40;;;;;;;9.35;7.60;;;;;;;22.25;45.11;99740.84;10286844;28;20073;-75
2023/05/09 15:43:44;;;;;;;7.45;6.78;;;;;;;22.20;45.17;99727.81;10288445;28;20053;-75
2023/05/09 15:48:47;;;;;;;7.15;6.55;;;;;;;22.03;45.69;99723.88;10287978;28;20055;-75
2023/05/09 15:53:50;;;;;;;11.25;6.00;;;;;;;21.87;45.76;99719.72;10300988;28;20240;-75
2023/05/09 15:58:54;;;;;;;6.85;6.25;;;;;;;21.54;45.56;99711.56;10285935;28;20054;-75
2023/05/09 16:03:57;;;;;;;7.22;6.53;;;;;;;21.58;46.02;99696.41;10286316;28;20046;-75
2023/05/09 16:09:03;;;;;;;7.80;6.40;;;;;;;21.43;46.17;99693.94;10282957;28;20054;-75
2023/05/09 16:14:10;;;;;;;7.40;6.70;;;;;;;21.12;47.01;99695.44;10284629;28;20054;-75
2023/05/09 16:19:13;;;;;;;6.55;5.90;;;;;;;21.02;47.02;99693.06;10279170;28;20046;-74
2023/05/09 16:24:16;;;;;;;11.80;6.40;;;;;;;20.98;47.27;99683.63;10282587;28;20141;-74
2023/05/09 16:29:21;;;;;;;11.15;6.82;;;;;;;21.01;47.17;99679.66;10283382;28;20050;-75
2023/05/09 16:34:24;;;;;;;7.15;6.28;;;;;;;20.72;47.14;99689.06;10283602;28;20061;-75
2023/05/09 16:39:27;;;;;;;7.75;6.97;;;;;;;20.82;47.21;99675.84;10277238;28;20062;-74
2023/05/09 16:44:31;;;;;;;6.72;6.18;;;;;;;20.91;47.40;99666.41;10283952;28;20057;-75
2023/05/09 16:49:34;;;;;;;6.85;6.25;;;;;;;20.79;47.77;99668.91;10284521;28;20057;-75
2023/05/09 16:54:37;;;;;;;11.32;6.82;;;;;;;20.66;48.25;99648.97;10283180;28;20118;-75
2023/05/09 16:59:41;;;;;;;7.57;6.82;;;;;;;20.56;49.90;99655.66;10284519;28;20192;-75
2023/05/09 17:04:44;;;;;;;7.90;7.20;;;;;;;20.30;51.97;99661.03;10281884;28;20525;-75
2023/05/09 17:09:48;;;;;;;8.02;7.28;;;;;;;19.90;53.45;99661.72;10284312;28;20058;-75
2023/05/09 17:14:53;;;;;;;9.18;7.38;;;;;;;20.01;53.20;99659.47;10288076;28;21284;-75
2023/05/09 17:19:56;;;;;;;7.97;7.13;;;;;;;19.91;53.36;99657.09;10284939;28;20436;-75
2023/05/09 17:24:59;;;;;;;10.25;6.95;;;;;;;19.80;54.19;99646.78;10283379;28;20054;-75
2023/05/09 17:30:04;;;;;;;8.43;7.53;;;;;;;19.83;54.08;99640.97;10285287;28;20046;-76
2023/05/09 17:35:08;;;;;;;8.93;7.57;;;;;;;19.84;54.07;99639.91;10286024;28;20429;-76
2023/05/09 17:40:11;;;;;;;11.45;8.00;;;;;;;19.41;55.48;99635.44;10286251;28;20057;-76
2023/05/09 17:45:15;;;;;;;8.52;7.72;;;;;;;18.89;57.37;99639.47;10285680;28;20134;-75
2023/05/09 17:50:19;;;;;;;8.85;8.05;;;;;;;18.94;57.66;99639.72;10285403;28;20054;-75
2023/05/09 17:55:22;;;;;;;10.48;8.90;;;;;;;18.04;59.88;99649.25;10285397;28;21190;-76
2023/05/09 18:00:26;;;;;;;8.80;7.93;;;;;;;18.31;59.47;99638.69;10289591;28;20088;-75
2023/05/09 18:05:29;;;;;;;11.15;8.30;;;;;;;18.09;60.82;99646.81;10291912;28;20050;-76
2023/05/09 18:10:33;;;;;;;10.63;8.77;;;;;;;17.76;63.05;99642.81;10284610;28;21295;-75
2023/05/09 18:15:37;;;;;;;11.32;8.70;;;;;;;17.55;64.78;99652.59;10289312;28;20080;-75
2023/05/09 18:20:40;;;;;;;11.48;9.60;;;;;;;17.16;66.44;99645.50;10288764;28;20086;-76
2023/05/09 18:25:43;;;;;;;11.77;9.55;;;;;;;17.11;66.92;99644.34;10289804;28;20050;-76
2023/05/09 18:30:47;;;;;;;19.92;10.38;;;;;;;17.15;67.30;99634.88;10288917;28;20057;-75
2023/05/09 18:35:50;;;;;;;11.45;10.27;;;;;;;17.18;69.12;99638.03;10288992;28;20089;-74
2023/05/09 18:40:53;;;;;;;11.77;10.57;;;;;;;17.20;68.84;99637.88;10287324;28;20048;-75
2023/05/09 18:45:57;;;;;;;13.65;11.18;;;;;;;17.36;68.16;99637.69;10288618;28;20046;-75
2023/05/09 18:51:00;;;;;;;13.07;11.30;;;;;;;17.45;67.00;99639.28;10284589;28;20058;-75
2023/05/09 18:56:03;;;;;;;15.70;11.65;;;;;;;17.27;67.35;99635.25;10287041;28;20054;-75
2023/05/09 19:01:10;;;;;;;15.65;11.13;;;;;;;16.91;68.75;99627.78;10286713;28;20045;-74
2023/05/09 19:06:15;;;;;;;13.82;11.88;;;;;;;17.10;68.05;99637.25;10288258;28;20054;-75
2023/05/09 19:11:18;;;;;;;12.65;10.13;;;;;;;16.86;68.58;99650.00;10288380;28;20417;-74
2023/05/09 19:16:25;;;;;;;12.82;11.52;;;;;;;17.09;67.78;99660.00;10293356;28;20050;-76
2023/05/09 19:21:28;;;;;;;10.57;9.45;;;;;;;16.95;67.25;99662.50;10297720;28;20055;-75
2023/05/09 19:26:31;;;;;;;10.43;9.23;;;;;;;17.16;66.07;99663.66;10293603;28;20141;-75
2023/05/09 19:31:36;;;;;;;10.18;8.90;;;;;;;17.09;65.98;99652.69;10294637;28;20085;-76
2023/05/09 19:36:38;;;;;;;10.18;7.95;;;;;;;17.03;65.68;99657.00;10293994;28;20168;-75
2023/05/09 19:41:41;;;;;;;10.10;9.00;;;;;;;17.24;65.18;99677.16;10290711;28;20051;-75
2023/05/09 19:46:46;;;;;;;7.90;7.13;;;;;;;16.67;68.09;99683.06;10291266;28;20459;-75
2023/05/09 19:51:49;;;;;;;11.45;9.13;;;;;;;16.38;70.66;99676.50;10288759;28;20054;-74
2023/05/09 19:56:51;;;;;;;9.35;8.35;;;;;;;16.33;71.51;99676.19;10288768;28;20046;-74
2023/05/09 20:01:56;;;;;;;9.77;8.43;;;;;;;16.33;71.62;99670.75;10288470;28;20129;-74
2023/05/09 20:06:59;;;;;;;10.65;8.60;;;;;;;16.46;71.14;99673.72;10286107;28;20767;-75
2023/05/09 20:12:02;;;;;;;9.98;8.45;;;;;;;16.65;70.56;99668.81;10304342;28;20046;-75
2023/05/09 20:17:06;;;;;;;9.95;8.13;;;;;;;16.46;71.12;99679.16;10284039;28;20586;-75
2023/05/09 20:22:09;;;;;;;9.18;8.27;;;;;;;16.42;71.35;99668.84;10289910;28;20697;-75
2023/05/09 20:27:12;;;;;;;9.45;8.18;;;;;;;16.78;70.00;99663.63;10288797;28;20635;-75
2023/05/09 20:32:16;;;;;;;9.55;8.50;;;;;;;16.94;69.51;99663.50;10290434;28;20138;-75
2023/05/09 20:37:19;;;;;;;8.15;7.32;;;;;;;17.06;68.85;99660.34;10289910;28;20054;-75
2023/05/09 20:42:23;;;;;;;9.65;7.57;;;;;;;17.03;68.34;99656.13;10289959;28;20042;-75
2023/05/09 20:47:27;;;;;;;8.40;6.78;;;;;;;16.56;69.18;99659.91;10286326;28;20050;-75
2023/05/09 20:52:30;;;;;;;7.35;6.53;;;;;;;16.76;69.36;99650.28;10286004;28;20443;-75
2023/05/09 20:57:33;;;;;;;8.77;6.60;;;;;;;16.85;69.19;99644.78;10289646;28;20050;-75
2023/05/09 21:02:37;;;;;;;8.07;5.90;;;;;;;16.78;70.01;99637.38;10285577;28;20076;-75
2023/05/09 21:07:40;;;;;;;8.88;6.47;;;;;;;16.73;70.33;99639.81;10297858;28;20050;-74
2023/05/09 21:12:42;;;;;;;8.05;7.18;;;;;;;16.54;70.76;99624.88;10284581;28;20416;-75
2023/05/09 21:17:46;;;;;;;9.05;7.43;;;;;;;16.41;71.11;99616.50;10300666;28;20431;-74
2023/05/09 21:22:50;;;;;;;8.70;7.35;;;;;;;16.34;71.78;99619.06;10327845;28;20505;-75
2023/05/09 21:27:52;;;;;;;7.75;7.05;;;;;;;16.32;72.28;99609.47;10335579;28;20390;-75
2023/05/09 21:32:57;;;;;;;9.15;7.50;;;;;;;16.19;73.00;99610.03;10363586;22;20467;-75
2023/05/09 21:37:59;;;;;;;9.13;8.23;;;;;;;16.12;72.67;99609.88;10342078;28;20042;-75
2023/05/09 21:43:02;;;;;;;8.05;7.25;;;;;;;16.01;72.21;99613.00;10345123;28;20038;-75
2023/05/09 21:48:06;;;;;;;8.10;6.65;;;;;;;15.78;72.70;99599.44;10340172;28;20113;-75
2023/05/09 21:53:09;;;;;;;8.13;7.32;;;;;;;15.83;72.55;99605.16;10338510;28;20038;-74
2023/05/09 21:58:12;;;;;;;7.93;7.05;;;;;;;15.80;72.38;99594.69;10340284;28;20121;-74
2023/05/09 22:03:16;;;;;;;7.75;6.88;;;;;;;15.83;72.79;99599.75;10351041;28;20147;-74
2023/05/09 22:08:19;;;;;;;7.25;6.57;;;;;;;15.79;72.45;99595.69;10346541;28;20523;-75
2023/05/09 22:13:22;;;;;;;8.20;7.25;;;;;;;15.70;72.67;99592.19;10347297;28;20084;-75
2023/05/09 22:18:26;;;;;;;7.78;6.60;;;;;;;15.81;72.51;99584.69;10342080;28;20501;-74
2023/05/09 22:23:29;;;;;;;9.00;6.28;;;;;;;16.02;72.31;99595.75;10338840;28;20070;-76
2023/05/09 22:28:32;;;;;;;6.93;6.22;;;;;;;15.89;71.68;99588.19;10336493;28;20052;-75
2023/05/09 22:33:36;;;;;;;6.13;5.53;;;;;;;15.79;71.74;99589.44;10339483;28;20034;-74
2023/05/09 22:38:38;;;;;;;6.95;5.80;;;;;;;15.71;71.69;99590.31;10336962;28;20042;-74
2023/05/09 22:43:41;;;;;;;6.20;5.60;;;;;;;15.65;71.92;99586.44;10335594;28;20054;-74
2023/05/09 22:48:45;;;;;;;6.97;6.30;;;;;;;15.54;72.62;99578.72;10335691;28;20042;-75
2023/05/09 22:53:48;;;;;;;7.00;6.40;;;;;;;15.63;72.66;99577.69;10338804;28;20046;-75
2023/05/09 22:58:51;;;;;;;9.65;7.05;;;;;;;15.63;72.58;99577.69;10335791;28;20045;-74
2023/05/09 23:03:55;;;;;;;7.05;6.35;;;;;;;15.51;72.81;99580.94;10336870;28;20044;-75
2023/05/09 23:08:58;;;;;;;8.45;7.32;;;;;;;15.45;74.67;99572.50;10336495;28;20421;-74
2023/05/09 23:14:01;;;;;;;9.30;7.32;;;;;;;15.34;76.14;99567.50;10341110;28;20042;-75
2023/05/09 23:19:05;;;;;;;7.93;7.15;;;;;;;15.23;77.46;99563.25;10340141;28;20393;-75